<?xml version="1.0" encoding="UTF-8" standalone="no" ?>
<gpx xmlns="http://www.topografix.com/GPX/1/1" xmlns:xsi="http://www.w3.org/2001/XMLSchema-instance" xsi:schemaLocation="http://www.topografix.com/GPX/1/1 http://www.topografix.com/GPX/1/1/gpx.xsd" version="1.1" creator="VisuGPX - https://www.visugpx.com">
  <metadata>
    <name>Thézac / Observatoire</name>
  </metadata>
  <trk>
    <name><![CDATA[2021-11-21 16:42:39]]></name>
    <trkseg>
      <trkpt lat="44.42959" lon="1.0145">
        <ele>278.44</ele>
        <time>2021-11-21T13:05:56Z</time>
      </trkpt>
      <trkpt lat="44.42892" lon="1.01519">
        <ele>225.09</ele>
        <time>2021-11-21T13:09:10Z</time>
      </trkpt>
      <trkpt lat="44.42817" lon="1.01502">
        <ele>222.68</ele>
        <time>2021-11-21T13:10:10Z</time>
      </trkpt>
      <trkpt lat="44.42735" lon="1.01459">
        <ele>220.28</ele>
        <time>2021-11-21T13:11:08Z</time>
      </trkpt>
      <trkpt lat="44.42644" lon="1.01468">
        <ele>214.51</ele>
        <time>2021-11-21T13:12:06Z</time>
      </trkpt>
      <trkpt lat="44.42548" lon="1.01468">
        <ele>208.74</ele>
        <time>2021-11-21T13:13:05Z</time>
      </trkpt>
      <trkpt lat="44.42464" lon="1.01425">
        <ele>203.94</ele>
        <time>2021-11-21T13:14:00Z</time>
      </trkpt>
      <trkpt lat="44.42395" lon="1.0133">
        <ele>197.21</ele>
        <time>2021-11-21T13:15:00Z</time>
      </trkpt>
      <trkpt lat="44.42339" lon="1.01246">
        <ele>193.84</ele>
        <time>2021-11-21T13:15:59Z</time>
      </trkpt>
      <trkpt lat="44.42417" lon="1.01156">
        <ele>194.8</ele>
        <time>2021-11-21T13:17:09Z</time>
      </trkpt>
      <trkpt lat="44.42499" lon="1.0108">
        <ele>198.65</ele>
        <time>2021-11-21T13:18:16Z</time>
      </trkpt>
      <trkpt lat="44.42593" lon="1.01064">
        <ele>199.13</ele>
        <time>2021-11-21T13:19:18Z</time>
      </trkpt>
      <trkpt lat="44.42679" lon="1.01014">
        <ele>203.46</ele>
        <time>2021-11-21T13:20:19Z</time>
      </trkpt>
      <trkpt lat="44.4276" lon="1.0103">
        <ele>210.67</ele>
        <time>2021-11-21T13:21:22Z</time>
      </trkpt>
      <trkpt lat="44.42815" lon="1.00942">
        <ele>212.11</ele>
        <time>2021-11-21T13:22:23Z</time>
      </trkpt>
      <trkpt lat="44.42807" lon="1.00814">
        <ele>210.67</ele>
        <time>2021-11-21T13:23:20Z</time>
      </trkpt>
      <trkpt lat="44.42791" lon="1.00685">
        <ele>214.99</ele>
        <time>2021-11-21T13:24:21Z</time>
      </trkpt>
      <trkpt lat="44.42781" lon="1.00553">
        <ele>219.8</ele>
        <time>2021-11-21T13:25:24Z</time>
      </trkpt>
      <trkpt lat="44.42756" lon="1.00424">
        <ele>217.4</ele>
        <time>2021-11-21T13:26:26Z</time>
      </trkpt>
      <trkpt lat="44.42723" lon="1.00303">
        <ele>214.99</ele>
        <time>2021-11-21T13:27:24Z</time>
      </trkpt>
      <trkpt lat="44.42673" lon="1.00267">
        <ele>205.38</ele>
        <time>2021-11-21T13:28:29Z</time>
      </trkpt>
      <trkpt lat="44.42581" lon="1.00275">
        <ele>190</ele>
        <time>2021-11-21T13:29:41Z</time>
      </trkpt>
      <trkpt lat="44.42488" lon="1.00257">
        <ele>185.67</ele>
        <time>2021-11-21T13:30:49Z</time>
      </trkpt>
      <trkpt lat="44.42401" lon="1.00235">
        <ele>178.46</ele>
        <time>2021-11-21T13:31:56Z</time>
      </trkpt>
      <trkpt lat="44.42353" lon="1.00123">
        <ele>172.21</ele>
        <time>2021-11-21T13:32:57Z</time>
      </trkpt>
      <trkpt lat="44.42356" lon="0.99999">
        <ele>168.37</ele>
        <time>2021-11-21T13:33:59Z</time>
      </trkpt>
      <trkpt lat="44.42405" lon="0.99883">
        <ele>167.41</ele>
        <time>2021-11-21T13:35:01Z</time>
      </trkpt>
      <trkpt lat="44.42485" lon="0.99791">
        <ele>165.48</ele>
        <time>2021-11-21T13:36:11Z</time>
      </trkpt>
      <trkpt lat="44.42552" lon="0.99651">
        <ele>164.04</ele>
        <time>2021-11-21T13:37:30Z</time>
      </trkpt>
      <trkpt lat="44.42595" lon="0.99515">
        <ele>162.12</ele>
        <time>2021-11-21T13:41:29Z</time>
      </trkpt>
      <trkpt lat="44.42589" lon="0.99393">
        <ele>165.48</ele>
        <time>2021-11-21T13:42:37Z</time>
      </trkpt>
      <trkpt lat="44.42522" lon="0.99296">
        <ele>173.17</ele>
        <time>2021-11-21T13:43:43Z</time>
      </trkpt>
      <trkpt lat="44.42539" lon="0.99169">
        <ele>178.94</ele>
        <time>2021-11-21T13:44:46Z</time>
      </trkpt>
      <trkpt lat="44.42585" lon="0.99051">
        <ele>186.63</ele>
        <time>2021-11-21T13:45:52Z</time>
      </trkpt>
      <trkpt lat="44.42647" lon="0.9901">
        <ele>195.77</ele>
        <time>2021-11-21T13:47:02Z</time>
      </trkpt>
      <trkpt lat="44.42709" lon="0.98938">
        <ele>202.49</ele>
        <time>2021-11-21T13:48:05Z</time>
      </trkpt>
      <trkpt lat="44.4277" lon="0.98843">
        <ele>208.74</ele>
        <time>2021-11-21T13:49:07Z</time>
      </trkpt>
      <trkpt lat="44.42807" lon="0.98754">
        <ele>208.26</ele>
        <time>2021-11-21T13:50:08Z</time>
      </trkpt>
      <trkpt lat="44.4285" lon="0.98703">
        <ele>202.01</ele>
        <time>2021-11-21T13:51:18Z</time>
      </trkpt>
      <trkpt lat="44.42949" lon="0.98761">
        <ele>195.28</ele>
        <time>2021-11-21T13:52:29Z</time>
      </trkpt>
      <trkpt lat="44.43055" lon="0.98772">
        <ele>189.52</ele>
        <time>2021-11-21T13:53:39Z</time>
      </trkpt>
      <trkpt lat="44.4317" lon="0.98792">
        <ele>186.15</ele>
        <time>2021-11-21T13:54:57Z</time>
      </trkpt>
      <trkpt lat="44.43271" lon="0.98847">
        <ele>197.21</ele>
        <time>2021-11-21T13:56:19Z</time>
      </trkpt>
      <trkpt lat="44.43356" lon="0.98935">
        <ele>203.94</ele>
        <time>2021-11-21T13:57:35Z</time>
      </trkpt>
      <trkpt lat="44.43448" lon="0.98999">
        <ele>206.34</ele>
        <time>2021-11-21T13:58:45Z</time>
      </trkpt>
      <trkpt lat="44.43541" lon="0.99034">
        <ele>207.3</ele>
        <time>2021-11-21T13:59:51Z</time>
      </trkpt>
      <trkpt lat="44.43628" lon="0.99072">
        <ele>209.22</ele>
        <time>2021-11-21T14:00:53Z</time>
      </trkpt>
      <trkpt lat="44.4372" lon="0.99066">
        <ele>202.98</ele>
        <time>2021-11-21T14:01:55Z</time>
      </trkpt>
      <trkpt lat="44.43814" lon="0.99018">
        <ele>192.4</ele>
        <time>2021-11-21T14:03:03Z</time>
      </trkpt>
      <trkpt lat="44.43907" lon="0.98941">
        <ele>182.31</ele>
        <time>2021-11-21T14:04:18Z</time>
      </trkpt>
      <trkpt lat="44.44006" lon="0.98884">
        <ele>169.81</ele>
        <time>2021-11-21T14:05:30Z</time>
      </trkpt>
      <trkpt lat="44.44091" lon="0.98839">
        <ele>155.39</ele>
        <time>2021-11-21T14:06:32Z</time>
      </trkpt>
      <trkpt lat="44.44179" lon="0.98802">
        <ele>143.37</ele>
        <time>2021-11-21T14:07:34Z</time>
      </trkpt>
      <trkpt lat="44.44266" lon="0.98736">
        <ele>131.36</ele>
        <time>2021-11-21T14:08:42Z</time>
      </trkpt>
      <trkpt lat="44.44364" lon="0.98729">
        <ele>119.82</ele>
        <time>2021-11-21T14:09:48Z</time>
      </trkpt>
      <trkpt lat="44.44461" lon="0.98724">
        <ele>114.53</ele>
        <time>2021-11-21T14:10:49Z</time>
      </trkpt>
      <trkpt lat="44.44493" lon="0.98667">
        <ele>114.05</ele>
        <time>2021-11-21T14:11:47Z</time>
      </trkpt>
      <trkpt lat="44.44475" lon="0.98542">
        <ele>113.57</ele>
        <time>2021-11-21T14:12:44Z</time>
      </trkpt>
      <trkpt lat="44.44471" lon="0.98415">
        <ele>113.09</ele>
        <time>2021-11-21T14:13:41Z</time>
      </trkpt>
      <trkpt lat="44.44485" lon="0.983">
        <ele>113.09</ele>
        <time>2021-11-21T14:14:40Z</time>
      </trkpt>
      <trkpt lat="44.44517" lon="0.9841">
        <ele>125.11</ele>
        <time>2021-11-21T14:17:03Z</time>
      </trkpt>
      <trkpt lat="44.446" lon="0.98451">
        <ele>140.01</ele>
        <time>2021-11-21T14:18:15Z</time>
      </trkpt>
      <trkpt lat="44.44687" lon="0.98505">
        <ele>156.35</ele>
        <time>2021-11-21T14:19:32Z</time>
      </trkpt>
      <trkpt lat="44.44736" lon="0.98624">
        <ele>173.17</ele>
        <time>2021-11-21T14:20:48Z</time>
      </trkpt>
      <trkpt lat="44.44773" lon="0.9874">
        <ele>181.83</ele>
        <time>2021-11-21T14:21:54Z</time>
      </trkpt>
      <trkpt lat="44.44831" lon="0.98845">
        <ele>185.19</ele>
        <time>2021-11-21T14:22:58Z</time>
      </trkpt>
      <trkpt lat="44.4492" lon="0.98868">
        <ele>187.59</ele>
        <time>2021-11-21T14:24:00Z</time>
      </trkpt>
      <trkpt lat="44.45011" lon="0.98851">
        <ele>191.92</ele>
        <time>2021-11-21T14:25:01Z</time>
      </trkpt>
      <trkpt lat="44.45103" lon="0.98843">
        <ele>199.13</ele>
        <time>2021-11-21T14:26:05Z</time>
      </trkpt>
      <trkpt lat="44.45191" lon="0.98884">
        <ele>206.34</ele>
        <time>2021-11-21T14:27:09Z</time>
      </trkpt>
      <trkpt lat="44.45222" lon="0.98978">
        <ele>208.74</ele>
        <time>2021-11-21T14:28:11Z</time>
      </trkpt>
      <trkpt lat="44.45278" lon="0.99082">
        <ele>208.74</ele>
        <time>2021-11-21T14:29:17Z</time>
      </trkpt>
      <trkpt lat="44.45342" lon="0.99181">
        <ele>205.38</ele>
        <time>2021-11-21T14:30:21Z</time>
      </trkpt>
      <trkpt lat="44.45422" lon="0.99236">
        <ele>204.42</ele>
        <time>2021-11-21T14:31:17Z</time>
      </trkpt>
      <trkpt lat="44.45503" lon="0.9929">
        <ele>200.57</ele>
        <time>2021-11-21T14:32:15Z</time>
      </trkpt>
      <trkpt lat="44.45588" lon="0.99346">
        <ele>197.69</ele>
        <time>2021-11-21T14:33:14Z</time>
      </trkpt>
      <trkpt lat="44.45675" lon="0.99396">
        <ele>200.09</ele>
        <time>2021-11-21T14:34:16Z</time>
      </trkpt>
      <trkpt lat="44.45765" lon="0.9943">
        <ele>197.21</ele>
        <time>2021-11-21T14:35:17Z</time>
      </trkpt>
      <trkpt lat="44.45856" lon="0.99432">
        <ele>190.48</ele>
        <time>2021-11-21T14:36:15Z</time>
      </trkpt>
      <trkpt lat="44.45949" lon="0.99423">
        <ele>183.27</ele>
        <time>2021-11-21T14:37:14Z</time>
      </trkpt>
      <trkpt lat="44.46041" lon="0.99414">
        <ele>185.19</ele>
        <time>2021-11-21T14:38:13Z</time>
      </trkpt>
      <trkpt lat="44.46125" lon="0.99448">
        <ele>187.59</ele>
        <time>2021-11-21T14:39:11Z</time>
      </trkpt>
      <trkpt lat="44.46178" lon="0.99569">
        <ele>190.48</ele>
        <time>2021-11-21T14:40:16Z</time>
      </trkpt>
      <trkpt lat="44.46218" lon="0.99692">
        <ele>194.8</ele>
        <time>2021-11-21T14:41:19Z</time>
      </trkpt>
      <trkpt lat="44.4627" lon="0.99808">
        <ele>199.61</ele>
        <time>2021-11-21T14:42:25Z</time>
      </trkpt>
      <trkpt lat="44.46313" lon="0.99924">
        <ele>197.69</ele>
        <time>2021-11-21T14:43:25Z</time>
      </trkpt>
      <trkpt lat="44.46353" lon="1.00043">
        <ele>190.96</ele>
        <time>2021-11-21T14:44:23Z</time>
      </trkpt>
      <trkpt lat="44.46385" lon="1.00159">
        <ele>190.96</ele>
        <time>2021-11-21T14:45:18Z</time>
      </trkpt>
      <trkpt lat="44.464" lon="1.00276">
        <ele>195.28</ele>
        <time>2021-11-21T14:46:12Z</time>
      </trkpt>
      <trkpt lat="44.46382" lon="1.00397">
        <ele>198.17</ele>
        <time>2021-11-21T14:47:13Z</time>
      </trkpt>
      <trkpt lat="44.46337" lon="1.0051">
        <ele>202.49</ele>
        <time>2021-11-21T14:48:13Z</time>
      </trkpt>
      <trkpt lat="44.46302" lon="1.00623">
        <ele>202.01</ele>
        <time>2021-11-21T14:49:12Z</time>
      </trkpt>
      <trkpt lat="44.46284" lon="1.00747">
        <ele>202.01</ele>
        <time>2021-11-21T14:50:11Z</time>
      </trkpt>
      <trkpt lat="44.46263" lon="1.00872">
        <ele>202.98</ele>
        <time>2021-11-21T14:51:11Z</time>
      </trkpt>
      <trkpt lat="44.46212" lon="1.00919">
        <ele>206.34</ele>
        <time>2021-11-21T14:52:24Z</time>
      </trkpt>
      <trkpt lat="44.46128" lon="1.009">
        <ele>199.13</ele>
        <time>2021-11-21T14:53:18Z</time>
      </trkpt>
      <trkpt lat="44.46045" lon="1.00953">
        <ele>185.67</ele>
        <time>2021-11-21T14:54:19Z</time>
      </trkpt>
      <trkpt lat="44.45954" lon="1.01013">
        <ele>174.14</ele>
        <time>2021-11-21T14:55:30Z</time>
      </trkpt>
      <trkpt lat="44.45845" lon="1.01047">
        <ele>168.85</ele>
        <time>2021-11-21T14:56:47Z</time>
      </trkpt>
      <trkpt lat="44.45735" lon="1.01028">
        <ele>162.12</ele>
        <time>2021-11-21T14:58:03Z</time>
      </trkpt>
      <trkpt lat="44.45619" lon="1.01035">
        <ele>156.83</ele>
        <time>2021-11-21T14:59:23Z</time>
      </trkpt>
      <trkpt lat="44.45507" lon="1.01033">
        <ele>151.06</ele>
        <time>2021-11-21T15:00:39Z</time>
      </trkpt>
      <trkpt lat="44.45405" lon="1.01109">
        <ele>144.82</ele>
        <time>2021-11-21T15:01:58Z</time>
      </trkpt>
      <trkpt lat="44.45384" lon="1.01226">
        <ele>140.49</ele>
        <time>2021-11-21T15:03:13Z</time>
      </trkpt>
      <trkpt lat="44.45424" lon="1.01348">
        <ele>141.93</ele>
        <time>2021-11-21T15:04:13Z</time>
      </trkpt>
      <trkpt lat="44.45442" lon="1.01471">
        <ele>145.3</ele>
        <time>2021-11-21T15:05:13Z</time>
      </trkpt>
      <trkpt lat="44.45366" lon="1.015">
        <ele>144.82</ele>
        <time>2021-11-21T15:06:14Z</time>
      </trkpt>
      <trkpt lat="44.45298" lon="1.01575">
        <ele>152.51</ele>
        <time>2021-11-21T15:07:25Z</time>
      </trkpt>
      <trkpt lat="44.45198" lon="1.01572">
        <ele>168.85</ele>
        <time>2021-11-21T15:08:53Z</time>
      </trkpt>
      <trkpt lat="44.45101" lon="1.01566">
        <ele>170.29</ele>
        <time>2021-11-21T15:10:08Z</time>
      </trkpt>
      <trkpt lat="44.45019" lon="1.01613">
        <ele>178.94</ele>
        <time>2021-11-21T15:11:21Z</time>
      </trkpt>
      <trkpt lat="44.44935" lon="1.01671">
        <ele>195.77</ele>
        <time>2021-11-21T15:12:47Z</time>
      </trkpt>
      <trkpt lat="44.44853" lon="1.01705">
        <ele>206.34</ele>
        <time>2021-11-21T15:13:55Z</time>
      </trkpt>
      <trkpt lat="44.44834" lon="1.01825">
        <ele>206.82</ele>
        <time>2021-11-21T15:14:55Z</time>
      </trkpt>
      <trkpt lat="44.44743" lon="1.01783">
        <ele>210.19</ele>
        <time>2021-11-21T15:15:55Z</time>
      </trkpt>
      <trkpt lat="44.44656" lon="1.01745">
        <ele>216.91</ele>
        <time>2021-11-21T15:16:56Z</time>
      </trkpt>
      <trkpt lat="44.44566" lon="1.0172">
        <ele>217.4</ele>
        <time>2021-11-21T15:17:57Z</time>
      </trkpt>
      <trkpt lat="44.44479" lon="1.01645">
        <ele>216.43</ele>
        <time>2021-11-21T15:19:03Z</time>
      </trkpt>
      <trkpt lat="44.44387" lon="1.01579">
        <ele>219.8</ele>
        <time>2021-11-21T15:20:09Z</time>
      </trkpt>
      <trkpt lat="44.4429" lon="1.01562">
        <ele>221.72</ele>
        <time>2021-11-21T15:21:15Z</time>
      </trkpt>
      <trkpt lat="44.44195" lon="1.01543">
        <ele>215.47</ele>
        <time>2021-11-21T15:22:21Z</time>
      </trkpt>
      <trkpt lat="44.44117" lon="1.01615">
        <ele>216.91</ele>
        <time>2021-11-21T15:23:22Z</time>
      </trkpt>
      <trkpt lat="44.44037" lon="1.01662">
        <ele>213.07</ele>
        <time>2021-11-21T15:24:30Z</time>
      </trkpt>
      <trkpt lat="44.43943" lon="1.01722">
        <ele>190.96</ele>
        <time>2021-11-21T15:25:46Z</time>
      </trkpt>
      <trkpt lat="44.43843" lon="1.01653">
        <ele>188.08</ele>
        <time>2021-11-21T15:27:32Z</time>
      </trkpt>
      <trkpt lat="44.43745" lon="1.01711">
        <ele>207.78</ele>
        <time>2021-11-21T15:29:14Z</time>
      </trkpt>
      <trkpt lat="44.43637" lon="1.01679">
        <ele>218.36</ele>
        <time>2021-11-21T15:30:44Z</time>
      </trkpt>
      <trkpt lat="44.4354" lon="1.01682">
        <ele>221.72</ele>
        <time>2021-11-21T15:31:57Z</time>
      </trkpt>
      <trkpt lat="44.43461" lon="1.01614">
        <ele>225.57</ele>
        <time>2021-11-21T15:33:02Z</time>
      </trkpt>
      <trkpt lat="44.43379" lon="1.01576">
        <ele>229.41</ele>
        <time>2021-11-21T15:34:08Z</time>
      </trkpt>
      <trkpt lat="44.43296" lon="1.01641">
        <ele>227.49</ele>
        <time>2021-11-21T15:35:10Z</time>
      </trkpt>
      <trkpt lat="44.43206" lon="1.01682">
        <ele>225.09</ele>
        <time>2021-11-21T15:36:10Z</time>
      </trkpt>
      <trkpt lat="44.43121" lon="1.0161">
        <ele>222.2</ele>
        <time>2021-11-21T15:37:12Z</time>
      </trkpt>
      <trkpt lat="44.43034" lon="1.01621">
        <ele>220.76</ele>
        <time>2021-11-21T15:38:13Z</time>
      </trkpt>
      <trkpt lat="44.42976" lon="1.01548">
        <ele>223.16</ele>
        <time>2021-11-21T15:39:17Z</time>
      </trkpt>
    </trkseg>
  </trk>
</gpx>